Rosebloom, Mississippi
Current Conditions -  °F | °C
As of 2:15 AM on Thursday 29 Jan 2015 (Local Time) from KGNF Reporting Station
Clear Clear  
Wind Chill:   Ceiling: Unl
Heat Index:   Visibility: 10mi
Dew Point:   Wind: 5mph
Humidity: 66%   Direction: 150°SSE
Pressure: 30.13"   Gusts: NA
Location:  33.8947°N, 90.0323°W
Report Text: KGNF 290815Z AUTO 15004KT 10SM CLR 08/02 A3013 RMK AO2
Loading
Personal Weather Stations






























Interactive Weather Map New forecast layout! Learn more

10-Day Weather Forecast

Advertisements
Track Severe Weather on mobile